sensor_id;sensor_type;location;lat;lon;timestamp;pressure;altitude;pressure_sealevel;temperature;humidity
57568;BME280;43403;51.948;5.922;2023-02-14T00:01:45;103449.78;;;4.89;100.00
57568;BME280;43403;51.948;5.922;2023-02-14T00:04:12;103438.53;;;4.89;100.00
57568;BME280;43403;51.948;5.922;2023-02-14T00:06:39;103445.53;;;4.87;100.00
57568;BME280;43403;51.948;5.922;2023-02-14T00:09:06;103445.59;;;4.84;100.00
57568;BME280;43403;51.948;5.922;2023-02-14T00:11:32;103447.38;;;4.82;100.00
57568;BME280;43403;51.948;5.922;2023-02-14T00:13:59;103435.41;;;4.76;100.00
57568;BME280;43403;51.948;5.922;2023-02-14T00:16:43;103440.63;;;4.76;100.00
57568;BME280;43403;51.948;5.922;2023-02-14T00:19:10;103442.38;;;4.75;100.00
57568;BME280;43403;51.948;5.922;2023-02-14T00:21:37;103438.94;;;4.75;100.00
57568;BME280;43403;51.948;5.922;2023-02-14T00:24:05;103430.41;;;4.70;100.00
57568;BME280;43403;51.948;5.922;2023-02-14T00:26:32;103429.41;;;4.74;100.00
57568;BME280;43403;51.948;5.922;2023-02-14T00:28:58;103433.69;;;4.77;100.00
57568;BME280;43403;51.948;5.922;2023-02-14T00:31:24;103440.69;;;4.74;100.00
57568;BME280;43403;51.948;5.922;2023-02-14T00:33:51;103441.59;;;4.72;100.00
57568;BME280;43403;51.948;5.922;2023-02-14T00:36:17;103434.78;;;4.68;100.00
57568;BME280;43403;51.948;5.922;2023-02-14T00:38:45;103439.09;;;4.69;100.00
57568;BME280;43403;51.948;5.922;2023-02-14T00:41:11;103427.91;;;4.67;100.00
57568;BME280;43403;51.948;5.922;2023-02-14T00:43:48;103424.41;;;4.66;100.00
57568;BME280;43403;51.948;5.922;2023-02-14T00:46:15;103427.94;;;4.65;100.00
57568;BME280;43403;51.948;5.922;2023-02-14T00:48:42;103421.97;;;4.62;100.00
57568;BME280;43403;51.948;5.922;2023-02-14T00:51:08;103425.50;;;4.59;100.00
57568;BME280;43403;51.948;5.922;2023-02-14T00:53:35;103429.00;;;4.58;100.00
57568;BME280;43403;51.948;5.922;2023-02-14T00:56:02;103422.91;;;4.59;100.00
57568;BME280;43403;51.948;5.922;2023-02-14T00:58:29;103439.44;;;4.56;100.00
57568;BME280;43403;51.948;5.922;2023-02-14T01:00:55;103433.41;;;4.54;100.00
57568;BME280;43403;51.948;5.922;2023-02-14T01:03:23;103438.69;;;4.53;100.00
57568;BME280;43403;51.948;5.922;2023-02-14T01:05:50;103437.19;;;4.44;100.00
57568;BME280;43403;51.948;5.922;2023-02-14T01:08:17;103432.78;;;4.46;100.00
57568;BME280;43403;51.948;5.922;2023-02-14T01:10:44;103427.75;;;4.40;100.00
57568;BME280;43403;51.948;5.922;2023-02-14T01:13:11;103432.94;;;4.42;100.00
57568;BME280;43403;51.948;5.922;2023-02-14T01:15:41;103434.72;;;4.40;100.00
57568;BME280;43403;51.948;5.922;2023-02-14T01:18:08;103438.97;;;4.42;100.00
57568;BME280;43403;51.948;5.922;2023-02-14T01:20:34;103429.53;;;4.40;100.00
57568;BME280;43403;51.948;5.922;2023-02-14T01:23:01;103427.75;;;4.40;100.00
57568;BME280;43403;51.948;5.922;2023-02-14T01:25:27;103424.34;;;4.38;100.00
57568;BME280;43403;51.948;5.922;2023-02-14T01:27:54;103425.34;;;4.34;100.00
57568;BME280;43403;51.948;5.922;2023-02-14T01:30:20;103427.13;;;4.32;100.00
57568;BME280;43403;51.948;5.922;2023-02-14T01:32:46;103424.59;;;4.29;100.00
57568;BME280;43403;51.948;5.922;2023-02-14T01:35:13;103424.66;;;4.27;100.00
57568;BME280;43403;51.948;5.922;2023-02-14T01:37:39;103423.88;;;4.24;100.00
57568;BME280;43403;51.948;5.922;2023-02-14T01:40:07;103430.16;;;4.15;100.00
57568;BME280;43403;51.948;5.922;2023-02-14T01:42:34;103424.97;;;4.15;100.00
57568;BME280;43403;51.948;5.922;2023-02-14T01:45:02;103424.16;;;4.13;100.00
57568;BME280;43403;51.948;5.922;2023-02-14T01:47:30;103426.75;;;4.13;100.00
57568;BME280;43403;51.948;5.922;2023-02-14T01:50:00;103426.94;;;4.07;100.00
57568;BME280;43403;51.948;5.922;2023-02-14T01:52:29;103421.72;;;4.07;100.00
57568;BME280;43403;51.948;5.922;2023-02-14T01:55:00;103428.91;;;3.97;100.00
57568;BME280;43403;51.948;5.922;2023-02-14T01:57:29;103428.72;;;4.05;100.00
57568;BME280;43403;51.948;5.922;2023-02-14T01:59:57;103431.31;;;4.05;100.00
57568;BME280;43403;51.948;5.922;2023-02-14T02:02:44;103432.97;;;4.07;100.00
57568;BME280;43403;51.948;5.922;2023-02-14T02:05:11;103425.09;;;4.10;100.00
57568;BME280;43403;51.948;5.922;2023-02-14T02:07:38;103421.56;;;4.13;100.00
57568;BME280;43403;51.948;5.922;2023-02-14T02:10:05;103416.38;;;4.13;100.00
57568;BME280;43403;51.948;5.922;2023-02-14T02:12:32;103418.09;;;4.14;100.00
57568;BME280;43403;51.948;5.922;2023-02-14T02:15:00;103414.53;;;4.16;100.00
57568;BME280;43403;51.948;5.922;2023-02-14T02:36:11;103404.47;;;4.06;100.00
57568;BME280;43403;51.948;5.922;2023-02-14T02:44:15;103404.53;;;4.03;100.00
57568;BME280;43403;51.948;5.922;2023-02-14T02:46:48;103401.19;;;3.97;100.00
57568;BME280;43403;51.948;5.922;2023-02-14T02:58:26;103398.94;;;3.84;100.00
57568;BME280;43403;51.948;5.922;2023-02-14T03:00:54;103398.16;;;3.80;100.00
57568;BME280;43403;51.948;5.922;2023-02-14T03:03:22;103398.22;;;3.79;100.00
57568;BME280;43403;51.948;5.922;2023-02-14T03:06:25;103406.94;;;3.76;100.00
57568;BME280;43403;51.948;5.922;2023-02-14T03:08:52;103396.69;;;3.70;100.00
57568;BME280;43403;51.948;5.922;2023-02-14T03:11:18;103400.25;;;3.67;100.00
57568;BME280;43403;51.948;5.922;2023-02-14T03:13:52;103396.88;;;3.62;100.00
57568;BME280;43403;51.948;5.922;2023-02-14T03:16:22;103394.28;;;3.62;100.00
57568;BME280;43403;51.948;5.922;2023-02-14T03:21:25;103396.03;;;3.62;100.00
57568;BME280;43403;51.948;5.922;2023-02-14T03:24:00;103394.28;;;3.62;100.00
57568;BME280;43403;51.948;5.922;2023-02-14T03:26:47;103393.50;;;3.59;100.00
57568;BME280;43403;51.948;5.922;2023-02-14T03:29:18;103390.91;;;3.59;100.00
57568;BME280;43403;51.948;5.922;2023-02-14T03:37:09;103385.19;;;3.46;100.00
57568;BME280;43403;51.948;5.922;2023-02-14T03:39:46;103387.00;;;3.42;100.00
57568;BME280;43403;51.948;5.922;2023-02-14T03:42:21;103388.78;;;3.40;100.00
57568;BME280;43403;51.948;5.922;2023-02-14T03:44:50;103387.97;;;3.38;100.00
57568;BME280;43403;51.948;5.922;2023-02-14T03:47:18;103389.81;;;3.33;100.00
57568;BME280;43403;51.948;5.922;2023-02-14T03:49:47;103395.09;;;3.30;100.00
57568;BME280;43403;51.948;5.922;2023-02-14T03:52:15;103393.47;;;3.26;100.00
57568;BME280;43403;51.948;5.922;2023-02-14T03:54:44;103392.66;;;3.22;100.00
57568;BME280;43403;51.948;5.922;2023-02-14T03:57:17;103391.81;;;3.22;100.00
57568;BME280;43403;51.948;5.922;2023-02-14T03:59:46;103398.69;;;3.23;100.00
57568;BME280;43403;51.948;5.922;2023-02-14T04:02:14;103391.84;;;3.20;100.00
57568;BME280;43403;51.948;5.922;2023-02-14T04:04:43;103393.78;;;3.12;100.00
57568;BME280;43403;51.948;5.922;2023-02-14T04:07:12;103400.69;;;3.11;100.00
57568;BME280;43403;51.948;5.922;2023-02-14T04:09:38;103393.84;;;3.07;100.00
57568;BME280;43403;51.948;5.922;2023-02-14T04:12:05;103396.47;;;3.06;100.00
57568;BME280;43403;51.948;5.922;2023-02-14T04:14:31;103393.88;;;3.06;100.00
57568;BME280;43403;51.948;5.922;2023-02-14T04:16:58;103393.94;;;3.04;100.00
57568;BME280;43403;51.948;5.922;2023-02-14T04:19:43;103389.63;;;3.03;100.00
57568;BME280;43403;51.948;5.922;2023-02-14T04:22:09;103395.72;;;3.02;100.00
57568;BME280;43403;51.948;5.922;2023-02-14T04:24:35;103387.13;;;3.00;100.00
57568;BME280;43403;51.948;5.922;2023-02-14T04:27:02;103394.91;;;3.00;100.00
57568;BME280;43403;51.948;5.922;2023-02-14T04:29:44;103394.97;;;2.97;100.00
57568;BME280;43403;51.948;5.922;2023-02-14T04:32:19;103401.09;;;2.93;100.00
57568;BME280;43403;51.948;5.922;2023-02-14T04:34:46;103399.31;;;2.95;100.00
57568;BME280;43403;51.948;5.922;2023-02-14T04:37:13;103400.19;;;2.94;100.00
57568;BME280;43403;51.948;5.922;2023-02-14T04:39:39;103396.75;;;2.93;100.00
57568;BME280;43403;51.948;5.922;2023-02-14T04:42:06;103396.75;;;2.93;100.00
57568;BME280;43403;51.948;5.922;2023-02-14T04:44:32;103389.81;;;2.94;100.00
57568;BME280;43403;51.948;5.922;2023-02-14T04:46:59;103393.38;;;2.90;100.00
57568;BME280;43403;51.948;5.922;2023-02-14T04:49:26;103389.09;;;2.89;100.00
57568;BME280;43403;51.948;5.922;2023-02-14T04:51:52;103385.66;;;2.88;100.00
57568;BME280;43403;51.948;5.922;2023-02-14T04:54:18;103387.47;;;2.85;100.00
57568;BME280;43403;51.948;5.922;2023-02-14T04:56:44;103384.91;;;2.82;100.00
57568;BME280;43403;51.948;5.922;2023-02-14T04:59:11;103380.66;;;2.79;100.00
57568;BME280;43403;51.948;5.922;2023-02-14T05:01:37;103375.53;;;2.76;100.00
57568;BME280;43403;51.948;5.922;2023-02-14T05:04:04;103369.56;;;2.72;100.00
57568;BME280;43403;51.948;5.922;2023-02-14T05:06:31;103367.91;;;2.68;100.00
57568;BME280;43403;51.948;5.922;2023-02-14T05:08:58;103364.50;;;2.66;100.00
57568;BME280;43403;51.948;5.922;2023-02-14T05:11:25;103362.00;;;2.63;100.00
57568;BME280;43403;51.948;5.922;2023-02-14T05:13:51;103368.88;;;2.64;100.00
57568;BME280;43403;51.948;5.922;2023-02-14T05:16:18;103362.03;;;2.62;100.00
57568;BME280;43403;51.948;5.922;2023-02-14T05:18:44;103362.03;;;2.62;100.00
57568;BME280;43403;51.948;5.922;2023-02-14T05:21:10;103354.22;;;2.63;100.00
57568;BME280;43403;51.948;5.922;2023-02-14T05:23:37;103358.59;;;2.61;100.00
57568;BME280;43403;51.948;5.922;2023-02-14T05:26:03;103358.56;;;2.63;100.00
57568;BME280;43403;51.948;5.922;2023-02-14T05:28:29;103350.84;;;2.60;100.00
57568;BME280;43403;51.948;5.922;2023-02-14T05:30:56;103349.13;;;2.58;100.00
57568;BME280;43403;51.948;5.922;2023-02-14T05:33:24;103356.03;;;2.58;100.00
57568;BME280;43403;51.948;5.922;2023-02-14T05:35:50;103356.03;;;2.58;100.00
57568;BME280;43403;51.948;5.922;2023-02-14T05:38:17;103354.38;;;2.55;100.00
57568;BME280;43403;51.948;5.922;2023-02-14T05:40:43;103372.56;;;2.52;100.00
57568;BME280;43403;51.948;5.922;2023-02-14T05:43:10;103367.41;;;2.51;100.00
57568;BME280;43403;51.948;5.922;2023-02-14T05:45:36;103364.00;;;2.49;100.00
57568;BME280;43403;51.948;5.922;2023-02-14T05:48:03;103372.72;;;2.45;100.00
57568;BME280;43403;51.948;5.922;2023-02-14T05:50:31;103368.41;;;2.45;100.00
57568;BME280;43403;51.948;5.922;2023-02-14T05:52:57;103361.47;;;2.47;100.00
57568;BME280;43403;51.948;5.922;2023-02-14T05:55:24;103368.41;;;2.45;100.00
57568;BME280;43403;51.948;5.922;2023-02-14T05:57:51;103364.09;;;2.44;100.00
57568;BME280;43403;51.948;5.922;2023-02-14T06:00:17;103365.03;;;2.42;100.00
57568;BME280;43403;51.948;5.922;2023-02-14T06:02:44;103364.09;;;2.44;100.00
57568;BME280;43403;51.948;5.922;2023-02-14T06:05:10;103371.03;;;2.44;100.00
57568;BME280;43403;51.948;5.922;2023-02-14T06:07:36;103365.84;;;2.44;100.00
57568;BME280;43403;51.948;5.922;2023-02-14T06:10:03;103365.91;;;2.41;100.00
57568;BME280;43403;51.948;5.922;2023-02-14T06:12:29;103361.59;;;2.41;100.00
57568;BME280;43403;51.948;5.922;2023-02-14T06:14:55;103372.81;;;2.42;100.00
57568;BME280;43403;51.948;5.922;2023-02-14T06:17:22;103365.06;;;2.40;100.00
57568;BME280;43403;51.948;5.922;2023-02-14T06:19:48;103362.47;;;2.40;100.00
57568;BME280;43403;51.948;5.922;2023-02-14T06:22:14;103358.22;;;2.37;100.00
57568;BME280;43403;51.948;5.922;2023-02-14T06:24:41;103362.59;;;2.34;100.00
57568;BME280;43403;51.948;5.922;2023-02-14T06:27:07;103367.81;;;2.31;100.00
57568;BME280;43403;51.948;5.922;2023-02-14T06:29:33;103360.97;;;2.28;100.00
57568;BME280;43403;51.948;5.922;2023-02-14T06:32:00;103367.03;;;2.27;100.00
57568;BME280;43403;51.948;5.922;2023-02-14T06:34:31;103373.94;;;2.27;100.00
57568;BME280;43403;51.948;5.922;2023-02-14T06:36:58;103373.09;;;2.26;100.00
57568;BME280;43403;51.948;5.922;2023-02-14T06:39:25;103370.41;;;2.31;100.00
57568;BME280;43403;51.948;5.922;2023-02-14T06:41:51;103379.06;;;2.31;100.00
57568;BME280;43403;51.948;5.922;2023-02-14T06:44:18;103377.31;;;2.32;100.00
57568;BME280;43403;51.948;5.922;2023-02-14T06:46:44;103378.19;;;2.29;100.00
57568;BME280;43403;51.948;5.922;2023-02-14T06:49:10;103375.63;;;2.29;100.00
57568;BME280;43403;51.948;5.922;2023-02-14T06:51:37;103367.91;;;2.28;100.00
57568;BME280;43403;51.948;5.922;2023-02-14T06:54:03;103367.09;;;2.24;100.00
57568;BME280;43403;51.948;5.922;2023-02-14T06:56:30;103377.47;;;2.24;100.00
57568;BME280;43403;51.948;5.922;2023-02-14T06:58:56;103372.31;;;2.21;100.00
57568;BME280;43403;51.948;5.922;2023-02-14T07:01:23;103374.88;;;2.23;100.00
57568;BME280;43403;51.948;5.922;2023-02-14T07:03:50;103377.50;;;2.21;100.00
57568;BME280;43403;51.948;5.922;2023-02-14T07:06:16;103381.84;;;2.21;100.00
57568;BME280;43403;51.948;5.922;2023-02-14T07:08:42;103381.84;;;2.19;100.00
57568;BME280;43403;51.948;5.922;2023-02-14T07:11:09;103387.94;;;2.18;100.00
57568;BME280;43403;51.948;5.922;2023-02-14T07:13:35;103393.03;;;2.21;100.00
57568;BME280;43403;51.948;5.922;2023-02-14T07:16:02;103393.97;;;2.18;100.00
57568;BME280;43403;51.948;5.922;2023-02-14T07:18:31;103390.44;;;2.21;100.00
57568;BME280;43403;51.948;5.922;2023-02-14T07:20:57;103394.78;;;2.21;100.00
57568;BME280;43403;51.948;5.922;2023-02-14T07:23:24;103394.78;;;2.21;100.00
57568;BME280;43403;51.948;5.922;2023-02-14T07:25:51;103393.03;;;2.21;100.00
57568;BME280;43403;51.948;5.922;2023-02-14T07:28:17;103392.19;;;2.21;100.00
57568;BME280;43403;51.948;5.922;2023-02-14T07:30:44;103396.44;;;2.25;100.00
57568;BME280;43403;51.948;5.922;2023-02-14T07:33:10;103399.03;;;2.25;100.00
57568;BME280;43403;51.948;5.922;2023-02-14T07:35:37;103392.06;;;2.28;100.00
57568;BME280;43403;51.948;5.922;2023-02-14T07:38:03;103393.75;;;2.29;100.00
57568;BME280;43403;51.948;5.922;2023-02-14T07:40:32;103392.84;;;2.32;100.00
57568;BME280;43403;51.948;5.922;2023-02-14T07:42:59;103391.09;;;2.32;100.00
57568;BME280;43403;51.948;5.922;2023-02-14T07:45:26;103400.53;;;2.35;100.00
57568;BME280;43403;51.948;5.922;2023-02-14T07:47:53;103403.13;;;2.35;100.00
57568;BME280;43403;51.948;5.922;2023-02-14T07:50:21;103402.19;;;2.39;100.00
57568;BME280;43403;51.948;5.922;2023-02-14T07:52:48;103406.47;;;2.43;100.00
57568;BME280;43403;51.948;5.922;2023-02-14T07:55:14;103400.28;;;2.49;100.00
57568;BME280;43403;51.948;5.922;2023-02-14T07:57:41;103401.97;;;2.51;100.00
57568;BME280;43403;51.948;5.922;2023-02-14T08:00:08;103400.19;;;2.55;100.00
57568;BME280;43403;51.948;5.922;2023-02-14T08:02:35;103402.72;;;2.56;100.00
57568;BME280;43403;51.948;5.922;2023-02-14T08:05:01;103394.91;;;2.58;100.00
57568;BME280;43403;51.948;5.922;2023-02-14T08:07:27;103402.63;;;2.61;100.00
57568;BME280;43403;51.948;5.922;2023-02-14T08:09:54;103394.75;;;2.66;100.00
57568;BME280;43403;51.948;5.922;2023-02-14T08:12:20;103393.84;;;2.68;100.00
57568;BME280;43403;51.948;5.922;2023-02-14T08:15:08;103391.16;;;2.73;100.00
57568;BME280;43403;51.948;5.922;2023-02-14T08:17:54;103391.06;;;2.77;100.00
57568;BME280;43403;51.948;5.922;2023-02-14T08:20:21;103395.28;;;2.82;100.00
57568;BME280;43403;51.948;5.922;2023-02-14T08:22:47;103387.47;;;2.85;100.00
57568;BME280;43403;51.948;5.922;2023-02-14T08:25:14;103393.38;;;2.90;100.00
57568;BME280;43403;51.948;5.922;2023-02-14T08:27:41;103395.88;;;2.94;100.00
57568;BME280;43403;51.948;5.922;2023-02-14T08:30:07;103389.75;;;2.99;100.00
57568;BME280;43403;51.948;5.922;2023-02-14T08:32:34;103390.47;;;3.04;100.00
57568;BME280;43403;51.948;5.922;2023-02-14T08:35:00;103392.88;;;3.13;100.00
57568;BME280;43403;51.948;5.922;2023-02-14T08:37:27;103389.25;;;3.20;100.00
57568;BME280;43403;51.948;5.922;2023-02-14T08:39:53;103391.69;;;3.28;100.00
57568;BME280;43403;51.948;5.922;2023-02-14T08:42:19;103388.94;;;3.34;100.00
57568;BME280;43403;51.948;5.922;2023-02-14T08:44:46;103389.59;;;3.42;100.00
57568;BME280;43403;51.948;5.922;2023-02-14T08:47:12;103400.59;;;3.53;100.00
57568;BME280;43403;51.948;5.922;2023-02-14T08:49:39;103392.59;;;3.61;100.00
57568;BME280;43403;51.948;5.922;2023-02-14T08:52:06;103388.06;;;3.69;100.00
57568;BME280;43403;51.948;5.922;2023-02-14T08:54:32;103379.16;;;3.80;100.00
57568;BME280;43403;51.948;5.922;2023-02-14T08:56:59;103383.28;;;3.88;100.00
57568;BME280;43403;51.948;5.922;2023-02-14T08:59:25;103386.56;;;3.93;100.00
57568;BME280;43403;51.948;5.922;2023-02-14T09:01:51;103382.91;;;4.02;100.00
57568;BME280;43403;51.948;5.922;2023-02-14T09:04:18;103383.63;;;4.07;100.00
57568;BME280;43403;51.948;5.922;2023-02-14T09:06:44;103381.66;;;4.15;100.00
57568;BME280;43403;51.948;5.922;2023-02-14T09:09:10;103387.63;;;4.19;100.00
57568;BME280;43403;51.948;5.922;2023-02-14T09:11:37;103386.63;;;4.23;100.00
57568;BME280;43403;51.948;5.922;2023-02-14T09:14:03;103383.94;;;4.28;100.00
57568;BME280;43403;51.948;5.922;2023-02-14T09:16:29;103376.81;;;4.34;100.00
57568;BME280;43403;51.948;5.922;2023-02-14T09:18:56;103375.75;;;4.42;100.00
57568;BME280;43403;51.948;5.922;2023-02-14T09:21:23;103372.94;;;4.49;100.00
57568;BME280;43403;51.948;5.922;2023-02-14T09:23:50;103378.00;;;4.54;100.00
57568;BME280;43403;51.948;5.922;2023-02-14T09:26:17;103375.22;;;4.60;100.00
57568;BME280;43403;51.948;5.922;2023-02-14T09:28:44;103372.50;;;4.65;100.00
57568;BME280;43403;51.948;5.922;2023-02-14T09:31:14;103373.22;;;4.68;100.00
57568;BME280;43403;51.948;5.922;2023-02-14T09:33:41;103372.28;;;4.72;100.00
57568;BME280;43403;51.948;5.922;2023-02-14T09:36:26;103368.59;;;4.78;100.00
57568;BME280;43403;51.948;5.922;2023-02-14T09:39:12;103367.56;;;4.84;100.00
57568;BME280;43403;51.948;5.922;2023-02-14T09:41:45;103361.38;;;4.88;100.00
57568;BME280;43403;51.948;5.922;2023-02-14T09:44:33;103363.84;;;4.92;100.00
57568;BME280;43403;51.948;5.922;2023-02-14T09:47:19;103367.16;;;4.98;100.00
57568;BME280;43403;51.948;5.922;2023-02-14T09:49:47;103366.72;;;5.11;100.00
57568;BME280;43403;51.948;5.922;2023-02-14T09:52:14;103367.38;;;5.18;100.00
57568;BME280;43403;51.948;5.922;2023-02-14T09:54:43;103371.56;;;5.24;100.00
57568;BME280;43403;51.948;5.922;2023-02-14T09:57:31;103363.53;;;5.30;100.00
57568;BME280;43403;51.948;5.922;2023-02-14T10:00:45;103361.53;;;5.38;100.00
57568;BME280;43403;51.948;5.922;2023-02-14T10:08:04;103356.06;;;5.72;100.00
57568;BME280;43403;51.948;5.922;2023-02-14T10:10:40;103356.69;;;5.79;100.00
57568;BME280;43403;51.948;5.922;2023-02-14T10:16:03;103348.34;;;5.94;100.00
57568;BME280;43403;51.948;5.922;2023-02-14T10:21:00;103349.53;;;6.11;100.00
57568;BME280;43403;51.948;5.922;2023-02-14T10:23:32;103344.81;;;6.21;100.00
57568;BME280;43403;51.948;5.922;2023-02-14T10:26:02;103346.13;;;6.32;100.00
57568;BME280;43403;51.948;5.922;2023-02-14T10:28:30;103340.44;;;6.45;100.00
57568;BME280;43403;51.948;5.922;2023-02-14T10:33:27;103342.25;;;6.66;100.00
57568;BME280;43403;51.948;5.922;2023-02-14T10:35:57;103344.50;;;6.76;100.00
57568;BME280;43403;51.948;5.922;2023-02-14T10:38:34;103344.88;;;6.88;100.00
57568;BME280;43403;51.948;5.922;2023-02-14T10:41:09;103355.72;;;7.00;100.00
57568;BME280;43403;51.948;5.922;2023-02-14T10:56:34;103334.75;;;7.86;100.00
57568;BME280;43403;51.948;5.922;2023-02-14T10:59:07;103340.25;;;7.99;100.00
57568;BME280;43403;51.948;5.922;2023-02-14T11:01:41;103334.28;;;8.16;100.00
57568;BME280;43403;51.948;5.922;2023-02-14T11:04:07;103329.44;;;8.27;100.00
57568;BME280;43403;51.948;5.922;2023-02-14T11:06:39;103334.94;;;8.40;100.00
57568;BME280;43403;51.948;5.922;2023-02-14T11:09:05;103325.69;;;8.52;100.00
57568;BME280;43403;51.948;5.922;2023-02-14T11:11:34;103322.38;;;8.67;100.00
57568;BME280;43403;51.948;5.922;2023-02-14T11:16:43;103311.41;;;8.96;100.00
57568;BME280;43403;51.948;5.922;2023-02-14T11:21:41;103312.00;;;9.20;100.00
57568;BME280;43403;51.948;5.922;2023-02-14T11:24:27;103317.22;;;9.37;100.00
57568;BME280;43403;51.948;5.922;2023-02-14T11:26:55;103310.53;;;9.49;100.00
57568;BME280;43403;51.948;5.922;2023-02-14T11:32:22;103303.78;;;9.78;100.00
57568;BME280;43403;51.948;5.922;2023-02-14T11:39:48;103300.63;;;10.21;100.00
57568;BME280;43403;51.948;5.922;2023-02-14T11:42:31;103292.28;;;10.30;100.00
57568;BME280;43403;51.948;5.922;2023-02-14T11:44:57;103288.47;;;10.52;100.00
57568;BME280;43403;51.948;5.922;2023-02-14T11:47:26;103300.16;;;10.62;99.89
57568;BME280;43403;51.948;5.922;2023-02-14T11:49:56;103291.00;;;10.69;99.06
57568;BME280;43403;51.948;5.922;2023-02-14T11:52:23;103286.75;;;10.82;98.00
57568;BME280;43403;51.948;5.922;2023-02-14T11:54:54;103285.44;;;10.89;93.12
57568;BME280;43403;51.948;5.922;2023-02-14T11:57:22;103276.16;;;11.14;96.85
57568;BME280;43403;51.948;5.922;2023-02-14T11:59:58;103270.38;;;11.23;91.85
57568;BME280;43403;51.948;5.922;2023-02-14T12:02:37;103257.63;;;11.32;89.72
57568;BME280;43403;51.948;5.922;2023-02-14T12:05:06;103258.38;;;11.48;89.61
57568;BME280;43403;51.948;5.922;2023-02-14T12:07:41;103260.66;;;11.68;89.10
57568;BME280;43403;51.948;5.922;2023-02-14T12:10:16;103251.81;;;11.84;86.66
57568;BME280;43403;51.948;5.922;2023-02-14T12:15:30;103238.19;;;12.06;89.31
57568;BME280;43403;51.948;5.922;2023-02-14T12:20:54;103234.22;;;12.13;79.36
57568;BME280;43403;51.948;5.922;2023-02-14T12:23:23;103234.09;;;12.29;81.42
57568;BME280;43403;51.948;5.922;2023-02-14T12:25:55;103231.34;;;12.31;78.08
57568;BME280;43403;51.948;5.922;2023-02-14T12:28:57;103221.94;;;12.41;81.62
57568;BME280;43403;51.948;5.922;2023-02-14T12:31:15;103224.81;;;12.51;76.85
57568;BME280;43403;51.948;5.922;2023-02-14T12:33:44;103216.09;;;12.63;80.45
57568;BME280;43403;51.948;5.922;2023-02-14T12:36:23;103217.91;;;12.62;76.25
57568;BME280;43403;51.948;5.922;2023-02-14T12:39:01;103210.63;;;12.66;75.40
57568;BME280;43403;51.948;5.922;2023-02-14T12:41:42;103203.59;;;12.79;78.13
57568;BME280;43403;51.948;5.922;2023-02-14T12:44:17;103205.09;;;12.96;78.09
57568;BME280;43403;51.948;5.922;2023-02-14T12:49:29;103198.69;;;13.13;76.87
57568;BME280;43403;51.948;5.922;2023-02-14T12:52:02;103189.31;;;13.22;77.72
57568;BME280;43403;51.948;5.922;2023-02-14T12:54:41;103190.91;;;13.37;77.42
57568;BME280;43403;51.948;5.922;2023-02-14T13:02:33;103181.41;;;13.60;71.41
57568;BME280;43403;51.948;5.922;2023-02-14T13:05:19;103180.84;;;13.68;76.04
57568;BME280;43403;51.948;5.922;2023-02-14T13:13:06;103160.53;;;13.81;69.84
57568;BME280;43403;51.948;5.922;2023-02-14T13:20:54;103156.97;;;14.07;74.01
57568;BME280;43403;51.948;5.922;2023-02-14T13:23:38;103146.66;;;14.03;70.69
57568;BME280;43403;51.948;5.922;2023-02-14T13:26:06;103147.56;;;14.27;74.98
57568;BME280;43403;51.948;5.922;2023-02-14T13:28:36;103147.50;;;14.39;73.69
57568;BME280;43403;51.948;5.922;2023-02-14T13:31:03;103148.84;;;14.45;70.38
57568;BME280;43403;51.948;5.922;2023-02-14T13:33:40;103139.00;;;14.47;67.70
57568;BME280;43403;51.948;5.922;2023-02-14T13:36:10;103138.66;;;14.52;73.40
57568;BME280;43403;51.948;5.922;2023-02-14T13:38:47;103138.44;;;14.55;73.58
57568;BME280;43403;51.948;5.922;2023-02-14T13:41:14;103135.25;;;14.62;71.13
57568;BME280;43403;51.948;5.922;2023-02-14T13:43:51;103127.91;;;14.66;70.86
57568;BME280;43403;51.948;5.922;2023-02-14T13:46:19;103127.31;;;14.74;72.07
57568;BME280;43403;51.948;5.922;2023-02-14T13:51:45;103116.44;;;14.78;70.80
57568;BME280;43403;51.948;5.922;2023-02-14T13:57:02;103110.06;;;14.81;65.88
57568;BME280;43403;51.948;5.922;2023-02-14T13:59:30;103113.06;;;14.76;65.85
57568;BME280;43403;51.948;5.922;2023-02-14T14:04:42;103105.25;;;14.86;66.52
57568;BME280;43403;51.948;5.922;2023-02-14T14:17:35;103104.03;;;14.68;68.84
57568;BME280;43403;51.948;5.922;2023-02-14T14:20:03;103100.03;;;14.62;68.57
57568;BME280;43403;51.948;5.922;2023-02-14T14:22:52;103094.19;;;14.58;68.82
57568;BME280;43403;51.948;5.922;2023-02-14T14:25:33;103096.28;;;14.53;67.46
57568;BME280;43403;51.948;5.922;2023-02-14T14:28:12;103091.91;;;14.30;67.33
57568;BME280;43403;51.948;5.922;2023-02-14T14:30:43;103093.09;;;14.26;69.81
57568;BME280;43403;51.948;5.922;2023-02-14T14:33:13;103083.94;;;14.18;69.24
57568;BME280;43403;51.948;5.922;2023-02-14T14:35:50;103083.19;;;14.05;69.31
57568;BME280;43403;51.948;5.922;2023-02-14T14:38:16;103087.09;;;13.99;69.42
57568;BME280;43403;51.948;5.922;2023-02-14T14:40:44;103087.69;;;13.92;68.55
57568;BME280;43403;51.948;5.922;2023-02-14T14:43:12;103079.66;;;13.93;71.59
57568;BME280;43403;51.948;5.922;2023-02-14T14:45:39;103080.38;;;13.95;73.02
57568;BME280;43403;51.948;5.922;2023-02-14T14:48:07;103081.81;;;13.88;74.97
57568;BME280;43403;51.948;5.922;2023-02-14T14:50:35;103072.44;;;13.84;73.35
57568;BME280;43403;51.948;5.922;2023-02-14T14:53:05;103075.19;;;13.82;73.85
57568;BME280;43403;51.948;5.922;2023-02-14T14:55:35;103073.00;;;13.76;75.17
57568;BME280;43403;51.948;5.922;2023-02-14T14:58:04;103078.38;;;13.75;74.59
57568;BME280;43403;51.948;5.922;2023-02-14T15:00:34;103080.56;;;13.57;74.89
57568;BME280;43403;51.948;5.922;2023-02-14T15:03:06;103076.47;;;13.53;75.98
57568;BME280;43403;51.948;5.922;2023-02-14T15:10:40;103075.75;;;13.38;80.43